createdAt,value
2023-04-14T00:01:42.248Z,99288.97
2023-04-14T00:04:09.029Z,99283.75
2023-04-14T00:06:36.034Z,99277.78
2023-04-14T00:09:02.674Z,99276.06
2023-04-14T00:11:29.273Z,99272.72
2023-04-14T00:13:57.464Z,99275.41
2023-04-14T00:16:24.638Z,99269.00
2023-04-14T00:18:51.326Z,99261.38
2023-04-14T00:21:17.826Z,99254.41
2023-04-14T00:23:44.446Z,99252.97
2023-04-14T00:26:11.062Z,99239.44
2023-04-14T00:28:37.650Z,99242.81
2023-04-14T00:31:04.293Z,99241.75
2023-04-14T00:33:30.954Z,99239.22
2023-04-14T00:35:57.604Z,99236.56
2023-04-14T00:38:25.993Z,99230.84
2023-04-14T00:40:52.569Z,99222.25
2023-04-14T00:43:19.580Z,99216.44
2023-04-14T00:45:48.363Z,99204.69
2023-04-14T00:48:16.890Z,99207.31
2023-04-14T00:50:44.116Z,99200.25
2023-04-14T00:53:12.694Z,99202.25
2023-04-14T00:55:40.451Z,99209.84
2023-04-14T00:58:07.537Z,99214.97
2023-04-14T01:00:35.402Z,99211.56
2023-04-14T01:03:02.121Z,99216.03
2023-04-14T01:05:28.924Z,99209.34
2023-04-14T01:07:55.809Z,99216.19
2023-04-14T01:10:28.729Z,99219.81
2023-04-14T01:13:33.523Z,99216.75
2023-04-14T01:16:05.001Z,99226.06
2023-04-14T01:18:34.406Z,99227.91
2023-04-14T01:21:17.388Z,99221.13
2023-04-14T01:24:11.097Z,99236.19
2023-04-14T01:26:39.116Z,99254.16
2023-04-14T01:29:11.603Z,99251.59
2023-04-14T01:31:43.549Z,99251.75
2023-04-14T01:34:13.045Z,99259.25
2023-04-14T01:37:07.613Z,99266.22
2023-04-14T01:39:41.648Z,99269.41
2023-04-14T01:42:13.401Z,99253.34
2023-04-14T01:44:41.399Z,99256.06
2023-04-14T01:47:11.677Z,99246.38
2023-04-14T01:49:41.209Z,99230.81
2023-04-14T01:52:13.515Z,99228.47
2023-04-14T01:54:42.732Z,99223.13
2023-04-14T01:57:12.776Z,99208.72
2023-04-14T01:59:42.363Z,99203.94
2023-04-14T02:02:10.600Z,99204.69
2023-04-14T02:04:38.628Z,99206.78
2023-04-14T02:07:06.423Z,99201.69
2023-04-14T02:09:34.293Z,99209.47
2023-04-14T02:12:02.144Z,99206.84
2023-04-14T02:14:31.351Z,99204.06
2023-04-14T02:16:59.562Z,99195.72
2023-04-14T02:19:27.572Z,99191.69
2023-04-14T02:21:56.350Z,99189.09
2023-04-14T02:24:23.867Z,99188.16
2023-04-14T02:27:11.312Z,99183.94
2023-04-14T02:29:42.274Z,99189.00
2023-04-14T02:32:15.806Z,99184.63
2023-04-14T02:34:54.346Z,99178.66
2023-04-14T02:37:26.768Z,99175.38
2023-04-14T02:40:02.973Z,99173.66
2023-04-14T02:42:31.792Z,99158.56
2023-04-14T02:45:05.708Z,99153.38
2023-04-14T02:47:37.274Z,99155.78
2023-04-14T02:50:06.474Z,99161.03
2023-04-14T02:52:34.597Z,99155.09
2023-04-14T02:55:03.683Z,99144.25
2023-04-14T02:57:33.710Z,99142.22
2023-04-14T03:00:00.838Z,99130.34
2023-04-14T03:02:28.415Z,99133.69
2023-04-14T03:04:55.777Z,99131.97
2023-04-14T03:07:24.008Z,99124.56
2023-04-14T03:09:51.746Z,99124.66
2023-04-14T03:12:20.070Z,99118.78
2023-04-14T03:14:48.464Z,99114.50
2023-04-14T03:17:15.567Z,99108.53
2023-04-14T03:19:43.934Z,99108.81
2023-04-14T03:22:12.542Z,99107.03
2023-04-14T03:24:40.381Z,99095.41
2023-04-14T03:27:22.919Z,99092.81
2023-04-14T03:29:52.961Z,99089.47
2023-04-14T03:32:21.529Z,99078.31
2023-04-14T03:34:51.881Z,99070.03
2023-04-14T03:37:23.169Z,99064.16
2023-04-14T03:39:52.253Z,99070.47
2023-04-14T03:42:21.170Z,99075.53
2023-04-14T03:44:53.249Z,99058.66
2023-04-14T03:47:22.772Z,99066.13
2023-04-14T03:49:54.507Z,99067.00
2023-04-14T03:52:23.710Z,99054.50
2023-04-14T03:54:53.371Z,99065.19
2023-04-14T03:57:23.261Z,99059.28
2023-04-14T03:59:52.087Z,99047.34
2023-04-14T04:02:19.127Z,99043.94
2023-04-14T04:04:46.176Z,99038.28
2023-04-14T04:07:13.945Z,99044.19
2023-04-14T04:09:42.858Z,99035.63
2023-04-14T04:12:11.845Z,99028.91
2023-04-14T04:14:40.446Z,99015.31
2023-04-14T04:17:09.500Z,99009.50
2023-04-14T04:19:38.242Z,99001.81
2023-04-14T04:22:05.615Z,98995.97
2023-04-14T04:24:38.907Z,98997.41
2023-04-14T04:27:09.769Z,98997.16
2023-04-14T04:29:41.383Z,98996.41
2023-04-14T04:32:08.200Z,98994.81
2023-04-14T04:34:35.930Z,98997.25
2023-04-14T04:37:03.164Z,99004.94
2023-04-14T04:39:30.491Z,99004.00
2023-04-14T04:42:07.452Z,98997.28
2023-04-14T04:44:35.248Z,98993.03
2023-04-14T04:47:02.771Z,99003.16
2023-04-14T04:49:29.408Z,99000.69
2023-04-14T04:51:56.988Z,99005.97
2023-04-14T04:54:23.675Z,99009.81
2023-04-14T04:56:50.484Z,98996.44
2023-04-14T04:59:17.487Z,98990.56
2023-04-14T05:01:44.152Z,99000.94
2023-04-14T05:04:12.082Z,99003.44
2023-04-14T05:06:38.710Z,98995.78
2023-04-14T05:09:06.013Z,98987.44
2023-04-14T05:11:33.855Z,98997.44
2023-04-14T05:14:00.616Z,98989.13
2023-04-14T05:16:28.315Z,98994.75
2023-04-14T05:18:55.007Z,98981.44
2023-04-14T05:21:21.787Z,98978.31
2023-04-14T05:23:48.788Z,98990.81
2023-04-14T05:28:46.284Z,98995.88
2023-04-14T05:31:13.686Z,98998.50
2023-04-14T05:33:40.348Z,98987.34
2023-04-14T05:36:07.478Z,98994.41
2023-04-14T05:38:37.139Z,98992.59
2023-04-14T05:41:03.695Z,98994.69
2023-04-14T05:43:30.444Z,99001.25
2023-04-14T05:45:58.576Z,99003.03
2023-04-14T05:48:27.626Z,98995.22
2023-04-14T05:50:54.160Z,98990.31
2023-04-14T05:53:20.692Z,98980.06
2023-04-14T05:55:48.826Z,98979.22
2023-04-14T05:58:15.459Z,98987.72
2023-04-14T06:00:42.026Z,98992.16
2023-04-14T06:03:09.079Z,98987.06
2023-04-14T06:05:35.912Z,98987.13
2023-04-14T06:08:02.524Z,98998.38
2023-04-14T06:10:29.132Z,98990.00
2023-04-14T06:12:55.704Z,98998.75
2023-04-14T06:15:22.268Z,99005.44
2023-04-14T06:17:48.932Z,99014.94
2023-04-14T06:20:16.105Z,99019.06
2023-04-14T06:22:43.472Z,99014.13
2023-04-14T06:25:11.042Z,99002.44
2023-04-14T06:27:37.735Z,99003.31
2023-04-14T06:30:06.143Z,98999.25
2023-04-14T06:32:33.091Z,98992.91
2023-04-14T06:34:59.805Z,99012.69
2023-04-14T06:37:26.346Z,99028.31
2023-04-14T06:39:52.954Z,99024.81
2023-04-14T06:42:19.451Z,99021.47
2023-04-14T06:44:46.466Z,99025.00
2023-04-14T06:47:18.127Z,99030.28
2023-04-14T06:49:44.770Z,99028.63
2023-04-14T06:52:11.307Z,99042.16
2023-04-14T06:54:37.865Z,99054.06
2023-04-14T06:57:04.383Z,99043.78
2023-04-14T06:59:31.191Z,99054.03
2023-04-14T07:01:58.845Z,99042.34
2023-04-14T07:04:25.872Z,99044.94
2023-04-14T07:06:52.478Z,99050.00
2023-04-14T07:09:19.490Z,99045.75
2023-04-14T07:11:46.531Z,99051.75
2023-04-14T07:14:13.226Z,99046.69
2023-04-14T07:16:39.750Z,99059.91
2023-04-14T07:19:06.323Z,99069.66
2023-04-14T07:21:33.235Z,99079.19
2023-04-14T07:24:00.183Z,99123.69
2023-04-14T07:26:26.977Z,99121.03
2023-04-14T07:28:53.529Z,99129.91
2023-04-14T07:31:20.996Z,99154.13
2023-04-14T07:33:47.660Z,99152.22
2023-04-14T07:36:14.844Z,99137.84
2023-04-14T07:38:41.621Z,99145.66
2023-04-14T07:41:08.185Z,99151.66
2023-04-14T07:43:37.472Z,99183.56
2023-04-14T07:46:05.255Z,99211.84
2023-04-14T07:48:33.687Z,99224.75
2023-04-14T07:51:00.316Z,99228.25
2023-04-14T07:53:26.937Z,99246.47
2023-04-14T07:55:53.511Z,99243.03
2023-04-14T07:58:21.260Z,99244.88
2023-04-14T08:00:49.184Z,99250.78
2023-04-14T08:03:17.435Z,99228.59
2023-04-14T08:05:44.163Z,99258.91
2023-04-14T08:08:10.727Z,99281.78
2023-04-14T08:10:41.986Z,99276.56
2023-04-14T08:13:09.253Z,99273.22
2023-04-14T08:15:36.031Z,99289.66
2023-04-14T08:18:03.005Z,99289.03
2023-04-14T08:20:29.680Z,99309.69
2023-04-14T08:22:57.189Z,99320.16
2023-04-14T08:25:23.921Z,99339.69
2023-04-14T08:27:50.561Z,99342.47
2023-04-14T08:30:17.187Z,99338.91
2023-04-14T08:32:43.812Z,99337.44
2023-04-14T08:35:37.705Z,99362.25
2023-04-14T08:37:57.241Z,99361.09
2023-04-14T08:40:31.194Z,99357.44
2023-04-14T08:42:57.738Z,99354.53
2023-04-14T08:45:25.724Z,99347.78
2023-04-14T08:47:56.871Z,99340.38
2023-04-14T08:50:26.327Z,99349.72
2023-04-14T08:52:59.665Z,99343.13
2023-04-14T08:55:27.861Z,99338.03
2023-04-14T08:57:55.565Z,99334.31
2023-04-14T09:00:22.823Z,99322.88
2023-04-14T09:02:50.874Z,99306.94
2023-04-14T09:05:18.606Z,99303.47
2023-04-14T09:07:45.244Z,99307.34
2023-04-14T09:10:12.093Z,99280.91
2023-04-14T09:12:41.802Z,99247.69
2023-04-14T09:15:09.407Z,99226.47
2023-04-14T09:17:36.729Z,99227.94
2023-04-14T09:20:38.749Z,99205.94
2023-04-14T09:22:50.985Z,99194.94
2023-04-14T09:25:19.829Z,99170.38
2023-04-14T09:27:49.076Z,99165.16
2023-04-14T09:30:17.723Z,99146.31
2023-04-14T09:32:45.233Z,99123.44
2023-04-14T09:35:16.242Z,99130.31
2023-04-14T09:37:46.968Z,99136.13
2023-04-14T09:40:31.990Z,99137.03
2023-04-14T09:42:59.498Z,99116.69
2023-04-14T09:45:43.218Z,99128.75
2023-04-14T09:48:10.895Z,99130.69
2023-04-14T09:50:56.811Z,99139.91
2023-04-14T09:53:52.957Z,99134.25
2023-04-14T09:56:21.224Z,99140.16
2023-04-14T09:58:49.026Z,99138.22
2023-04-14T10:01:17.714Z,99121.06
2023-04-14T10:03:48.921Z,99124.72
2023-04-14T10:06:16.522Z,99114.47
2023-04-14T10:08:51.663Z,99123.81
2023-04-14T10:11:21.194Z,99129.97
2023-04-14T10:13:58.606Z,99119.72
2023-04-14T10:16:25.769Z,99107.59
2023-04-14T10:18:53.766Z,99082.88
2023-04-14T10:21:23.020Z,99080.41
2023-04-14T10:23:50.218Z,99066.84
2023-04-14T10:26:17.540Z,99079.50
2023-04-14T10:28:46.879Z,99065.09
2023-04-14T10:31:29.922Z,99080.53
2023-04-14T10:33:56.616Z,99089.03
2023-04-14T10:36:31.953Z,99089.97
2023-04-14T10:39:03.600Z,99104.69
2023-04-14T10:41:49.662Z,99124.56
2023-04-14T10:44:35.199Z,99142.75
2023-04-14T10:47:07.806Z,99159.78
2023-04-14T10:49:39.617Z,99160.78
2023-04-14T10:52:30.260Z,99177.88
2023-04-14T10:55:07.880Z,99196.16
2023-04-14T10:57:43.431Z,99204.66
2023-04-14T11:00:22.449Z,99203.00
2023-04-14T11:03:04.466Z,99207.28
2023-04-14T11:05:35.618Z,99199.53
2023-04-14T11:08:16.578Z,99203.16
2023-04-14T11:10:51.133Z,99199.72
2023-04-14T11:13:17.953Z,99215.97
2023-04-14T11:15:50.053Z,99209.13
2023-04-14T11:18:19.947Z,99205.84
2023-04-14T11:20:46.753Z,99229.03
2023-04-14T11:23:15.110Z,99221.44
2023-04-14T11:25:41.877Z,99224.03
2023-04-14T11:28:08.871Z,99217.13
2023-04-14T11:30:35.445Z,99213.84
2023-04-14T11:33:02.132Z,99220.63
2023-04-14T11:35:30.107Z,99219.81
2023-04-14T11:37:58.050Z,99220.75
2023-04-14T11:40:27.275Z,99236.13
2023-04-14T11:42:57.103Z,99227.53
2023-04-14T11:45:28.849Z,99222.50
2023-04-14T11:48:06.215Z,99215.69
2023-04-14T11:50:35.940Z,99216.56
2023-04-14T11:53:06.576Z,99216.59
2023-04-14T11:55:34.952Z,99206.28
2023-04-14T11:58:02.325Z,99205.38
2023-04-14T12:00:29.012Z,99220.00
2023-04-14T12:02:56.793Z,99219.13
2023-04-14T12:05:30.269Z,99225.16
2023-04-14T12:08:07.404Z,99216.59
2023-04-14T12:10:37.283Z,99227.75
2023-04-14T12:13:11.382Z,99236.34
2023-04-14T12:15:42.268Z,99235.47
2023-04-14T12:18:13.690Z,99215.72
2023-04-14T12:20:45.524Z,99212.31
2023-04-14T12:23:12.395Z,99198.56
2023-04-14T12:25:39.917Z,99188.25
2023-04-14T12:28:07.009Z,99197.75
2023-04-14T12:30:34.632Z,99185.69
2023-04-14T12:33:10.007Z,99189.13
2023-04-14T12:35:37.487Z,99181.41
2023-04-14T12:38:17.065Z,99187.38
2023-04-14T12:40:46.052Z,99198.56
2023-04-14T12:43:14.073Z,99159.78
2023-04-14T12:45:46.029Z,99099.59
2023-04-14T12:48:13.903Z,99072.03
2023-04-14T12:50:40.648Z,99037.69
2023-04-14T12:53:24.943Z,99016.19
2023-04-14T12:56:14.053Z,99016.28
2023-04-14T12:58:42.906Z,99021.44
2023-04-14T13:01:13.881Z,99033.47
2023-04-14T13:03:50.562Z,99065.25
2023-04-14T13:06:19.173Z,99060.13
2023-04-14T13:08:47.210Z,99079.88
2023-04-14T13:11:14.750Z,99108.25
2023-04-14T13:13:41.650Z,99125.41
2023-04-14T13:16:15.423Z,99109.97
2023-04-14T13:18:43.453Z,99125.47
2023-04-14T13:21:11.197Z,99131.47
2023-04-14T13:23:37.795Z,99141.81
2023-04-14T13:26:04.405Z,99135.78
2023-04-14T13:28:31.657Z,99146.94
2023-04-14T13:30:58.482Z,99211.47
2023-04-14T13:33:25.930Z,99168.47
2023-04-14T13:35:53.529Z,99177.94
2023-04-14T13:38:20.191Z,99180.47
2023-04-14T13:40:48.236Z,99214.91
2023-04-14T13:43:18.021Z,99195.97
2023-04-14T13:45:44.824Z,99172.78
2023-04-14T13:48:12.869Z,99175.38
2023-04-14T13:50:39.467Z,99157.25
2023-04-14T13:53:06.052Z,99183.97
2023-04-14T13:55:35.372Z,99181.38
2023-04-14T13:58:01.951Z,99172.78
2023-04-14T14:00:28.495Z,99154.69
2023-04-14T14:02:55.180Z,99195.16
2023-04-14T14:05:21.853Z,99175.34
2023-04-14T14:07:48.381Z,99154.66
2023-04-14T14:10:14.969Z,99175.31
2023-04-14T14:12:41.947Z,99166.69
2023-04-14T14:15:08.976Z,99167.50
2023-04-14T14:17:36.840Z,99182.13
2023-04-14T14:20:03.986Z,99194.19
2023-04-14T14:22:30.826Z,99170.06
2023-04-14T14:25:10.742Z,99164.88
2023-04-14T14:27:42.324Z,99180.44
2023-04-14T14:30:09.385Z,99178.72
2023-04-14T14:32:36.069Z,99158.84
2023-04-14T14:35:04.362Z,99176.94
2023-04-14T14:37:31.014Z,99188.13
2023-04-14T14:39:57.938Z,99182.94
2023-04-14T14:42:24.511Z,99201.88
2023-04-14T14:44:51.443Z,99203.72
2023-04-14T14:47:18.116Z,99216.63
2023-04-14T14:49:56.732Z,99206.31
2023-04-14T14:52:29.570Z,99231.22
2023-04-14T14:54:56.165Z,99193.34
2023-04-14T14:57:22.980Z,99195.97
2023-04-14T14:59:49.477Z,99197.69
2023-04-14T15:02:17.131Z,99184.78
2023-04-14T15:04:43.990Z,99166.72
2023-04-14T15:07:10.665Z,99172.75
2023-04-14T15:09:37.345Z,99156.44
2023-04-14T15:12:03.984Z,99150.38
2023-04-14T15:14:30.570Z,99140.06
2023-04-14T15:16:57.289Z,99161.56
2023-04-14T15:19:24.214Z,99158.13
2023-04-14T15:21:51.674Z,99168.47
2023-04-14T15:24:18.236Z,99159.84
2023-04-14T15:26:44.753Z,99154.72
2023-04-14T15:29:11.565Z,99159.81
2023-04-14T15:31:38.161Z,99188.28
2023-04-14T15:34:05.091Z,99150.41
2023-04-14T15:36:31.806Z,99166.75
2023-04-14T15:38:58.564Z,99167.63
2023-04-14T15:41:25.417Z,99187.38
2023-04-14T15:43:51.950Z,99146.09
2023-04-14T15:46:19.345Z,99191.66
2023-04-14T15:48:46.017Z,99183.94
2023-04-14T15:51:12.685Z,99159.00
2023-04-14T15:53:39.307Z,99202.84
2023-04-14T15:56:06.019Z,99182.22
2023-04-14T15:58:32.532Z,99176.19
2023-04-14T16:00:59.133Z,99189.94
2023-04-14T16:03:26.115Z,99204.56
2023-04-14T16:06:03.745Z,99221.75
2023-04-14T16:08:30.449Z,99216.47
2023-04-14T16:10:57.045Z,99218.97
2023-04-14T16:13:23.678Z,99207.84
2023-04-14T16:15:50.860Z,99207.84
2023-04-14T16:18:17.409Z,99217.25
2023-04-14T16:20:44.110Z,99229.31
2023-04-14T16:23:10.821Z,99233.63
2023-04-14T16:25:37.730Z,99232.69
2023-04-14T16:28:04.539Z,99254.78
2023-04-14T16:30:31.749Z,99280.19
2023-04-14T16:32:58.425Z,99251.53
2023-04-14T16:35:25.952Z,99225.44
2023-04-14T16:37:53.266Z,99185.00
2023-04-14T16:40:19.866Z,99171.28
2023-04-14T16:42:47.313Z,99147.97
2023-04-14T16:45:13.965Z,99117.91
2023-04-14T16:47:40.616Z,99055.34
2023-04-14T16:50:08.130Z,99014.13
2023-04-14T16:52:35.146Z,98985.88
2023-04-14T16:55:02.006Z,98959.34
2023-04-14T16:57:28.863Z,98921.53
2023-04-14T16:59:55.569Z,98869.28
2023-04-14T17:02:27.220Z,98828.88
2023-04-14T17:04:53.858Z,98805.78
2023-04-14T17:07:20.974Z,98797.97
2023-04-14T17:09:47.978Z,98799.63
2023-04-14T17:12:14.514Z,98776.56
2023-04-14T17:14:41.343Z,98787.56
2023-04-14T17:17:07.950Z,98780.72
2023-04-14T17:19:34.730Z,98773.09
2023-04-14T17:22:01.347Z,98769.63
2023-04-14T17:24:29.628Z,98767.94
2023-04-14T17:26:57.279Z,98773.03
2023-04-14T17:29:23.927Z,98779.91
2023-04-14T17:31:50.694Z,98779.00
2023-04-14T17:34:19.307Z,98778.16
2023-04-14T17:36:46.642Z,98761.97
2023-04-14T17:39:13.720Z,98754.31
2023-04-14T17:41:40.337Z,98771.31
2023-04-14T17:44:07.197Z,98778.09
2023-04-14T17:46:33.870Z,98783.31
2023-04-14T17:49:04.066Z,98772.19
2023-04-14T17:51:31.412Z,98800.38
2023-04-14T17:53:58.204Z,98783.22
2023-04-14T17:56:25.467Z,98783.19
2023-04-14T17:58:52.209Z,98791.66
2023-04-14T18:01:19.518Z,98799.44
2023-04-14T18:03:46.331Z,98801.78
2023-04-14T18:06:13.517Z,98828.31
2023-04-14T18:08:40.040Z,98842.03
2023-04-14T18:11:07.156Z,98819.03
2023-04-14T18:13:34.695Z,98815.56
2023-04-14T18:16:01.838Z,98824.16
2023-04-14T18:18:28.532Z,98829.28
2023-04-14T18:20:55.935Z,98834.56
2023-04-14T18:23:22.488Z,98825.97
2023-04-14T18:28:28.864Z,98837.88
2023-04-14T18:30:58.326Z,98828.53
2023-04-14T18:33:26.386Z,98823.41
2023-04-14T18:35:55.649Z,98835.34
2023-04-14T18:38:23.060Z,98822.53
2023-04-14T18:40:50.204Z,98831.94
2023-04-14T18:43:17.610Z,98838.78
2023-04-14T18:45:48.679Z,98834.50
2023-04-14T18:48:16.200Z,98823.44
2023-04-14T18:50:43.898Z,98824.25
2023-04-14T18:53:11.178Z,98831.09
2023-04-14T18:55:45.080Z,98832.00
2023-04-14T18:58:12.937Z,98827.78
2023-04-14T19:00:40.279Z,98830.28
2023-04-14T19:03:08.563Z,98826.03
2023-04-14T19:05:36.960Z,98838.81
2023-04-14T19:08:07.487Z,98830.28
2023-04-14T19:10:34.592Z,98846.53
2023-04-14T19:13:01.208Z,98848.28
2023-04-14T19:15:29.004Z,98861.13
2023-04-14T19:17:55.996Z,98881.56
2023-04-14T19:20:23.720Z,98871.38
2023-04-14T19:22:50.568Z,98867.81
2023-04-14T19:25:17.355Z,98872.13
2023-04-14T19:27:44.049Z,98887.22
2023-04-14T19:30:11.123Z,98888.00
2023-04-14T19:32:37.745Z,98886.34
2023-04-14T19:35:07.700Z,98894.00
2023-04-14T19:37:38.414Z,98899.06
2023-04-14T19:40:06.515Z,98911.84
2023-04-14T19:42:33.490Z,98909.31
2023-04-14T19:45:01.140Z,98921.25
2023-04-14T19:47:27.909Z,98925.59
2023-04-14T19:49:55.172Z,98917.81
2023-04-14T19:52:22.360Z,98928.09
2023-04-14T19:54:49.675Z,98922.97
2023-04-14T19:57:16.956Z,98930.63
2023-04-14T19:59:44.218Z,98934.97
2023-04-14T20:02:13.249Z,98949.44
2023-04-14T20:04:40.452Z,98935.78
2023-04-14T20:07:07.441Z,98937.50
2023-04-14T20:09:34.582Z,98932.44
2023-04-14T20:12:02.532Z,98953.78
2023-04-14T20:14:29.461Z,98940.16
2023-04-14T20:16:56.653Z,98937.56
2023-04-14T20:19:24.527Z,98940.88
2023-04-14T20:21:51.300Z,98929.78
2023-04-14T20:24:18.771Z,98944.25
2023-04-14T20:26:45.445Z,98943.38
2023-04-14T20:29:12.638Z,98947.63
2023-04-14T20:31:39.829Z,98964.69
2023-04-14T20:34:06.533Z,98943.34
2023-04-14T20:36:36.195Z,98956.91
2023-04-14T20:39:07.191Z,98953.50
2023-04-14T20:41:34.686Z,98956.06
2023-04-14T20:44:01.483Z,98956.88
2023-04-14T20:46:28.883Z,98963.75
2023-04-14T20:48:56.691Z,98953.50
2023-04-14T20:51:23.651Z,98958.63
2023-04-14T20:53:50.784Z,98962.03
2023-04-14T20:56:17.821Z,98956.00
2023-04-14T20:58:45.569Z,98962.81
2023-04-14T21:01:12.456Z,98969.66
2023-04-14T21:03:39.410Z,98984.97
2023-04-14T21:06:06.691Z,98974.75
2023-04-14T21:08:33.777Z,98977.25
2023-04-14T21:11:15.678Z,98980.63
2023-04-14T21:15:41.649Z,98983.16
2023-04-14T21:16:32.402Z,98995.97
2023-04-14T21:18:59.236Z,98997.72
2023-04-14T21:21:27.085Z,99002.84
2023-04-14T21:23:54.006Z,99000.31
2023-04-14T21:26:20.617Z,99005.50
2023-04-14T21:28:47.330Z,99004.69
2023-04-14T21:31:14.023Z,99013.28
2023-04-14T21:33:41.774Z,99016.72
2023-04-14T21:36:09.758Z,99017.63
2023-04-14T21:38:37.867Z,99021.88
2023-04-14T21:41:05.225Z,99032.19
2023-04-14T21:43:32.736Z,99041.69
2023-04-14T21:45:59.442Z,99047.69
2023-04-14T21:48:26.109Z,99037.50
2023-04-14T21:50:52.621Z,99051.97
2023-04-14T21:53:19.370Z,99058.16
2023-04-14T21:55:46.894Z,99065.84
2023-04-14T21:58:13.588Z,99066.56
2023-04-14T22:00:41.763Z,99071.66
2023-04-14T22:03:08.507Z,99066.63
2023-04-14T22:05:35.244Z,99064.00
2023-04-14T22:08:01.785Z,99066.56
2023-04-14T22:10:32.153Z,99069.19
2023-04-14T22:13:03.093Z,99073.44
2023-04-14T22:15:29.631Z,99075.22
2023-04-14T22:17:56.378Z,99076.91
2023-04-14T22:20:23.812Z,99094.88
2023-04-14T22:22:50.417Z,99090.69
2023-04-14T22:25:16.960Z,99108.63
2023-04-14T22:27:43.505Z,99117.13
2023-04-14T22:30:10.852Z,99098.00
2023-04-14T22:32:37.462Z,99089.19
2023-04-14T22:35:04.428Z,99087.34
2023-04-14T22:37:31.258Z,99095.72
2023-04-14T22:39:57.910Z,99096.34
2023-04-14T22:42:25.968Z,99084.50
2023-04-14T22:44:53.581Z,99097.47
2023-04-14T22:47:20.813Z,99096.75
2023-04-14T22:49:47.366Z,99096.78
2023-04-14T22:52:13.913Z,99095.97
2023-04-14T22:54:41.701Z,99081.47
2023-04-14T22:57:09.408Z,99078.91
2023-04-14T22:59:37.117Z,99089.19
2023-04-14T23:02:04.349Z,99095.16
2023-04-14T23:04:31.530Z,99101.97
2023-04-14T23:06:58.127Z,99102.75
2023-04-14T23:09:24.695Z,99108.91
2023-04-14T23:11:51.216Z,99111.47
2023-04-14T23:14:17.746Z,99129.59
2023-04-14T23:16:44.334Z,99134.59
2023-04-14T23:19:11.354Z,99134.59
2023-04-14T23:21:37.880Z,99161.91
2023-04-14T23:24:04.867Z,99162.84
2023-04-14T23:26:31.567Z,99185.91
2023-04-14T23:28:58.109Z,99185.97
2023-04-14T23:31:24.753Z,99187.81
2023-04-14T23:33:52.862Z,99191.19
2023-04-14T23:36:19.857Z,99209.03
2023-04-14T23:38:46.403Z,99215.06
2023-04-14T23:41:13.483Z,99203.13
2023-04-14T23:43:40.130Z,99214.97
2023-04-14T23:46:06.662Z,99232.88
2023-04-14T23:48:33.164Z,99224.25
2023-04-14T23:51:13.712Z,99234.53
2023-04-14T23:53:45.032Z,99236.19
2023-04-14T23:56:11.588Z,99232.75
2023-04-14T23:58:38.128Z,99235.22
